Tegucigalpa, Honduras
Current Conditions -  °F | °C
As of 2:00 PM on Thursday 18 Dec 2014 (Local Time) from MHTG Reporting Station
Few Clouds Few Clouds  
Wind Chill: 27°   Ceiling: Unl
Heat Index: 27°   Visibility: 6mi
Dew Point: 16°   Wind: 9mph
Humidity: 51%   Direction: 30°NNE
Pressure: 30.06"   Gusts: NA
Location:  14.09°N, 87.22°W
Report Text: MHTG 182000Z 03008KT 9999 FEW030 27/16 Q1018 A3006 NOSIG
Loading
Personal Weather Stations






























Interactive Weather Map New forecast layout! Learn more

10-Day Weather Forecast

Advertisements
Track Severe Weather on mobile